Time;durP1;ratioP1;P1;durP2;ratioP2;P2;SDS_P1;SDS_P2;PMS_P1;PMS_P2;Temp;Humidity;BMP_temperature;BMP_pressure;BME280_temperature;BME280_humidity;BME280_pressure;Samples;Min_cycle;Max_cycle;Signal;HPM_P1;HPM_P2
2022/07/04 00:00:12;;;;;;;;;3.00;2.75;;;;;20.16;47.45;101556.72;5053061;28;45559;-81
2022/07/04 00:02:40;;;;;;;;;2.00;1.00;;;;;20.28;47.39;101584.38;5052746;28;45453;-81
2022/07/04 00:05:09;;;;;;;;;3.00;3.00;;;;;20.09;47.37;101556.63;5052586;28;48018;-82
2022/07/04 00:07:35;;;;;;;;;3.50;2.75;;;;;20.16;47.19;101573.63;5052286;28;45458;-80
2022/07/04 00:10:00;;;;;;;;;3.00;2.00;;;;;20.10;47.38;101569.13;5052613;28;45399;-81
2022/07/04 00:12:26;;;;;;;;;3.25;3.25;;;;;20.14;47.14;101578.03;5052424;28;45352;-81
2022/07/04 00:14:51;;;;;;;;;3.75;3.00;;;;;19.96;47.70;101557.44;5052801;28;45396;-81
2022/07/04 00:17:16;;;;;;;;;2.00;1.75;;;;;19.79;47.81;101521.69;5052544;28;45511;-81
2022/07/04 00:19:42;;;;;;;;;2.25;2.25;;;;;20.08;47.67;101586.88;5052907;28;45361;-81
2022/07/04 00:22:07;;;;;;;;;5.00;4.25;;;;;19.94;47.97;101563.63;5052335;28;45519;-81
2022/07/04 00:24:32;;;;;;;;;3.00;2.25;;;;;19.91;48.28;101561.84;5036855;28;46206;-81
2022/07/04 00:26:58;;;;;;;;;3.00;3.00;;;;;19.94;48.05;101569.84;5056016;28;45619;-81
2022/07/04 00:29:23;;;;;;;;;2.00;2.00;;;;;19.77;48.56;101548.38;5056193;28;45383;-81
2022/07/04 00:31:49;;;;;;;;;1.50;1.50;;;;;19.81;48.39;101557.28;5056057;28;45473;-81
2022/07/04 00:34:14;;;;;;;;;2.75;2.75;;;;;19.79;48.21;101561.69;5037935;28;46103;-81
2022/07/04 00:36:39;;;;;;;;;3.00;3.00;;;;;19.80;48.38;101568.81;5055493;28;45547;-81
2022/07/04 00:39:04;;;;;;;;;3.00;2.25;;;;;19.71;48.58;101550.09;5037753;28;45552;-81
2022/07/04 00:41:30;;;;;;;;;2.25;2.25;;;;;19.83;48.73;101579.53;5037804;28;45422;-82
2022/07/04 00:44:09;;;;;;;;;2.50;2.50;;;;;19.88;48.50;101593.81;5055932;28;45481;-81
2022/07/04 00:46:35;;;;;;;;;3.00;3.00;;;;;19.70;48.65;101562.50;5055767;28;45917;-81
2022/07/04 00:49:03;;;;;;;;;2.00;2.00;;;;;19.68;48.23;101564.28;5055902;28;45816;-82
2022/07/04 00:51:29;;;;;;;;;2.50;2.00;;;;;19.67;48.85;101573.16;5037592;28;45557;-81
2022/07/04 00:53:55;;;;;;;;;3.00;2.00;;;;;19.79;48.80;101593.72;5054948;28;46539;-81
2022/07/04 00:56:24;;;;;;;;;1.75;1.75;;;;;19.70;49.01;101573.16;5055828;28;45586;-81
2022/07/04 00:58:51;;;;;;;;;3.00;2.00;;;;;19.68;48.69;101584.72;5055877;28;45570;-81
2022/07/04 01:01:17;;;;;;;;;2.75;2.75;;;;;19.74;48.81;101596.34;5055814;28;45386;-81
2022/07/04 01:03:43;;;;;;;;;1.25;1.00;;;;;19.37;49.38;101546.13;5055417;28;46364;-81
2022/07/04 01:06:09;;;;;;;;;2.00;2.00;;;;;19.71;49.64;101608.78;5055492;28;45572;-81
2022/07/04 01:08:41;;;;;;;;;2.00;1.00;;;;;19.70;49.30;101601.63;5036740;28;45358;-82
2022/07/04 01:11:06;;;;;;;;;2.00;2.00;;;;;19.56;49.81;101582.78;5055472;28;45474;-81
2022/07/04 01:13:32;;;;;;;;;2.00;2.00;;;;;19.40;49.86;101564.81;5055140;28;46281;-81
2022/07/04 01:15:58;;;;;;;;;1.00;1.00;;;;;19.58;49.51;101605.91;5055487;28;45602;-81
2022/07/04 01:18:23;;;;;;;;;1.50;1.50;;;;;19.50;49.73;101601.34;5055437;28;45646;-81
2022/07/04 01:20:49;;;;;;;;;3.00;3.00;;;;;19.32;50.00;101578.06;5037209;28;45544;-82
2022/07/04 01:23:14;;;;;;;;;3.00;2.00;;;;;19.26;50.83;101575.28;5054319;28;46026;-81
2022/07/04 01:25:39;;;;;;;;;3.00;3.00;;;;;19.30;51.11;101586.03;5053920;28;45503;-81
2022/07/04 01:28:06;;;;;;;;;3.00;3.00;;;;;19.25;50.12;101586.84;5053806;28;45485;-81
2022/07/04 01:30:32;;;;;;;;;1.00;1.00;;;;;19.06;50.34;101567.97;5055158;28;45512;-81
2022/07/04 01:32:58;;;;;;;;;4.00;3.00;;;;;19.29;51.37;101608.22;5054910;28;46090;-81
2022/07/04 01:35:24;;;;;;;;;2.00;2.00;;;;;19.11;51.46;101583.09;5054967;28;45780;-81
2022/07/04 01:37:50;;;;;;;;;2.00;2.00;;;;;19.14;51.03;101601.81;5054345;28;45670;-81
2022/07/04 01:40:15;;;;;;;;;2.00;0.25;;;;;18.81;51.26;101555.19;5055335;28;45541;-81
2022/07/04 01:42:41;;;;;;;;;3.00;2.00;;;;;18.89;51.16;101580.16;5054628;28;46553;-81
2022/07/04 01:45:08;;;;;;;;;2.00;2.00;;;;;19.01;51.81;101601.66;5036849;28;45378;-81
2022/07/04 01:47:35;;;;;;;;;2.75;2.75;;;;;18.77;51.41;101564.91;5054914;28;45360;-82
2022/07/04 01:50:00;;;;;;;;;2.00;2.00;;;;;18.77;51.70;101569.34;5054914;28;45741;-82
2022/07/04 01:52:26;;;;;;;;;1.75;1.75;;;;;18.77;51.98;101572.91;5054330;28;45264;-81
2022/07/04 01:54:51;;;;;;;;;2.00;2.00;;;;;18.75;51.70;101565.75;5036361;28;45754;-81
2022/07/04 01:57:16;;;;;;;;;1.75;1.25;;;;;18.73;51.96;101572.84;5054923;28;45716;-81
2022/07/04 02:02:26;;;;;;;;;2.00;2.00;;;;;18.53;52.64;101569.84;5054345;28;45754;-81
2022/07/04 02:04:51;;;;;;;;;2.00;2.00;;;;;18.44;52.65;101559.94;5054662;28;45317;-81
2022/07/04 02:07:17;;;;;;;;;1.00;1.00;;;;;18.56;52.57;101586.75;5054119;28;45434;-81
2022/07/04 02:09:42;;;;;;;;;2.25;2.25;;;;;18.53;53.03;101585.81;5054439;28;45340;-81
2022/07/04 02:14:52;;;;;;;;;2.00;2.00;;;;;18.08;53.07;101531.00;5054455;28;45832;-81
2022/07/04 02:17:17;;;;;;;;;3.25;2.00;;;;;18.15;53.58;101553.25;5036437;28;45340;-80
2022/07/04 02:19:43;;;;;;;;;1.75;1.75;;;;;18.32;53.34;101597.00;5054675;28;45623;-81
2022/07/04 02:22:08;;;;;;;;;1.25;1.25;;;;;18.24;53.54;101583.56;5053828;28;45739;-81
2022/07/04 02:24:33;;;;;;;;;2.00;2.00;;;;;18.11;53.33;101554.97;5053855;28;45259;-81
2022/07/04 02:26:59;;;;;;;;;2.00;2.00;;;;;18.36;52.98;101592.63;5054313;28;45448;-81
2022/07/04 02:29:24;;;;;;;;;1.75;1.50;;;;;18.21;53.46;101569.31;5054572;28;45567;-81
2022/07/04 02:31:50;;;;;;;;;2.50;2.50;;;;;18.19;53.88;101558.66;5054119;28;46688;-81
2022/07/04 02:34:15;;;;;;;;;1.75;1.75;;;;;18.23;53.83;101571.16;5054344;28;45331;-80
2022/07/04 02:36:40;;;;;;;;;3.50;2.00;;;;;18.23;53.56;101592.44;5053818;28;45825;-80
2022/07/04 02:39:06;;;;;;;;;1.50;1.25;;;;;18.13;53.28;101571.88;5053922;28;45434;-81
2022/07/04 02:41:32;;;;;;;;;2.00;2.00;;;;;18.23;53.31;101584.47;5053711;28;46688;-81
2022/07/04 02:43:58;;;;;;;;;1.75;1.25;;;;;18.29;53.44;101597.84;5053826;28;45359;-81
2022/07/04 02:46:24;;;;;;;;;2.00;2.00;;;;;18.20;53.77;101595.03;5052090;28;45488;-80
2022/07/04 02:48:49;;;;;;;;;1.00;1.00;;;;;17.94;53.67;101562.66;5054195;28;45648;-81
2022/07/04 02:51:15;;;;;;;;;1.75;1.75;;;;;18.06;53.38;101585.91;5054054;28;46313;-81
2022/07/04 02:53:40;;;;;;;;;3.00;1.75;;;;;17.87;54.42;101559.88;5035031;28;45300;-81
2022/07/04 02:56:05;;;;;;;;;2.50;2.50;;;;;17.78;54.36;101560.59;5054096;28;45293;-81
2022/07/04 02:58:32;;;;;;;;;2.75;2.75;;;;;17.85;54.00;101577.56;5053765;28;45602;-81
2022/07/04 03:00:58;;;;;;;;;1.75;1.75;;;;;17.81;54.45;101573.06;5053755;28;45552;-81
2022/07/04 03:03:23;;;;;;;;;0.75;0.75;;;;;17.96;54.45;101613.22;5053403;28;45458;-81
2022/07/04 03:05:48;;;;;;;;;2.50;2.50;;;;;17.78;54.65;101587.19;5053862;28;45585;-80
2022/07/04 03:08:14;;;;;;;;;1.75;1.75;;;;;17.70;54.89;101579.03;5034963;28;45508;-81
2022/07/04 03:10:39;;;;;;;;;2.00;2.00;;;;;17.74;55.45;101610.19;5053578;28;46605;-81
2022/07/04 03:13:04;;;;;;;;;2.67;1.67;;;;;17.58;54.92;101583.22;5053330;28;45737;-81
2022/07/04 03:15:31;;;;;;;;;2.25;1.75;;;;;17.68;55.73;101615.31;5035720;28;45604;-81
2022/07/04 03:17:56;;;;;;;;;2.25;2.25;;;;;17.54;55.60;101601.78;5053396;28;45384;-81
2022/07/04 03:20:21;;;;;;;;;2.00;2.00;;;;;17.48;55.88;101608.72;5053347;28;46514;-81
2022/07/04 03:22:46;;;;;;;;;2.00;1.50;;;;;17.44;55.54;101597.16;5052302;28;45425;-81
2022/07/04 03:25:12;;;;;;;;;1.50;1.50;;;;;17.44;55.82;101610.44;5053723;28;45381;-81
2022/07/04 03:27:37;;;;;;;;;2.25;1.75;;;;;17.34;55.26;101580.97;5053272;28;45563;-81
2022/07/04 03:30:03;;;;;;;;;1.50;1.50;;;;;17.35;55.40;101583.69;5053284;28;46165;-81
2022/07/04 03:32:28;;;;;;;;;1.75;1.50;;;;;17.26;55.16;101575.50;5053089;28;45328;-80
2022/07/04 03:34:54;;;;;;;;;2.00;2.00;;;;;17.45;55.40;101606.91;5051373;28;45515;-81
2022/07/04 03:37:19;;;;;;;;;1.25;1.25;;;;;17.28;55.37;101579.09;5052481;28;45451;-81
2022/07/04 03:39:44;;;;;;;;;2.33;2.00;;;;;17.52;55.54;101614.13;5052722;28;48700;-81
2022/07/04 03:42:09;;;;;;;;;2.25;1.75;;;;;17.43;55.49;101590.03;5049444;28;45524;-81
2022/07/04 03:44:35;;;;;;;;;3.25;2.50;;;;;17.23;55.56;101559.50;5042549;28;45378;-80
2022/07/04 03:47:01;;;;;;;;;2.25;2.25;;;;;17.32;55.70;101580.94;5030157;28;45517;-81
2022/07/04 03:49:26;;;;;;;;;3.00;3.00;;;;;17.25;55.77;101571.06;5032961;28;45373;-81
2022/07/04 03:51:51;;;;;;;;;1.75;1.75;;;;;17.34;55.96;101595.19;5032397;28;45536;-81
2022/07/04 03:54:17;;;;;;;;;0.50;0.50;;;;;17.33;55.94;101592.47;5018006;28;45562;-81
2022/07/04 03:56:42;;;;;;;;;1.25;0.75;;;;;17.33;55.90;101601.31;5040065;28;45276;-81
2022/07/04 03:59:07;;;;;;;;;1.50;1.50;;;;;17.22;55.76;101589.59;5017434;28;46980;-81
2022/07/04 04:01:33;;;;;;;;;1.50;1.50;;;;;17.03;56.20;101557.31;5052707;28;45709;-81
2022/07/04 04:06:42;;;;;;;;;2.25;2.00;;;;;17.14;56.35;101594.75;5052532;28;45399;-81
2022/07/04 04:09:12;;;;;;;;;1.25;1.25;;;;;17.02;56.74;101584.75;5052531;28;45704;-81
2022/07/04 04:11:37;;;;;;;;;2.50;2.00;;;;;17.08;56.42;101601.69;5031304;28;45347;-82
2022/07/04 04:14:02;;;;;;;;;2.00;2.00;;;;;16.94;56.31;101583.66;5017431;28;45552;-81
2022/07/04 04:16:28;;;;;;;;;1.00;1.00;;;;;17.01;57.07;101606.88;5052631;28;45303;-81
2022/07/04 04:18:53;;;;;;;;;3.00;2.00;;;;;17.02;57.16;101611.31;5033845;28;47201;-81
2022/07/04 04:21:18;;;;;;;;;3.00;3.00;;;;;16.92;57.02;101606.66;5052611;28;45580;-81
2022/07/04 04:23:44;;;;;;;;;2.00;2.00;;;;;17.09;57.11;101645.97;5051760;28;45437;-81
2022/07/04 04:26:09;;;;;;;;;2.25;2.25;;;;;16.92;57.49;101622.59;5052753;28;45479;-81
2022/07/04 04:28:35;;;;;;;;;2.25;2.25;;;;;16.83;57.73;101619.72;5049857;28;46377;-81
2022/07/04 04:31:00;;;;;;;;;2.75;2.00;;;;;17.01;57.67;101646.69;5034129;28;45493;-81
2022/07/04 04:33:26;;;;;;;;;1.25;1.25;;;;;16.95;57.90;101632.41;5052471;28;45803;-81
2022/07/04 04:35:51;;;;;;;;;3.75;2.00;;;;;16.94;57.32;101623.50;5052620;28;45519;-81
2022/07/04 04:38:16;;;;;;;;;3.00;3.00;;;;;16.91;57.60;101609.28;5032048;28;46990;-80
2022/07/04 04:40:42;;;;;;;;;3.25;3.25;;;;;17.19;57.11;101646.22;5057096;28;45295;-81
2022/07/04 04:43:07;;;;;;;;;3.25;3.25;;;;;17.19;57.52;101637.34;5068278;28;44930;-81
2022/07/04 04:45:32;;;;;;;;;3.75;2.25;;;;;17.01;56.98;101598.91;5069037;28;44984;-81
2022/07/04 04:47:57;;;;;;;;;2.00;2.00;;;;;17.13;57.06;101619.50;5067576;28;48880;-81
2022/07/04 04:50:23;;;;;;;;;1.00;1.00;;;;;17.08;57.38;101599.91;5049603;28;45560;-81
2022/07/04 04:52:48;;;;;;;;;3.25;3.25;;;;;17.12;56.93;101603.53;5067943;28;45239;-81
2022/07/04 04:55:13;;;;;;;;;1.25;1.25;;;;;17.16;56.67;101602.75;5067810;28;45054;-81
2022/07/04 04:57:39;;;;;;;;;2.00;2.00;;;;;17.10;56.60;101589.34;5060254;28;45689;-81
2022/07/04 05:00:05;;;;;;;;;4.00;3.00;;;;;17.26;57.07;101621.56;5013506;28;45450;-82
2022/07/04 05:02:30;;;;;;;;;0.75;0.75;;;;;17.30;57.33;101633.16;5033355;28;45611;-81
2022/07/04 05:04:56;;;;;;;;;3.00;2.00;;;;;17.13;56.66;101592.03;5038877;28;45593;-81
2022/07/04 05:07:21;;;;;;;;;2.75;2.75;;;;;17.26;57.01;101608.28;5049286;28;45970;-82
2022/07/04 05:09:46;;;;;;;;;3.50;2.75;;;;;17.31;57.55;101619.00;5051306;28;45236;-82
2022/07/04 05:12:12;;;;;;;;;1.50;1.50;;;;;17.38;57.32;101625.34;5055273;28;45120;-82
2022/07/04 05:14:38;;;;;;;;;3.25;3.00;;;;;17.37;57.23;101616.47;5072151;28;44975;-82
2022/07/04 05:17:03;;;;;;;;;2.00;2.00;;;;;17.45;56.94;101624.63;5067163;28;45657;-82
2022/07/04 05:19:29;;;;;;;;;3.25;2.50;;;;;17.44;57.56;101617.53;5062710;28;45359;-81
2022/07/04 05:21:54;;;;;;;;;2.00;2.00;;;;;17.49;57.51;101608.78;5054244;28;45466;-81
2022/07/04 05:24:20;;;;;;;;;2.50;2.50;;;;;17.57;57.63;101623.97;5069051;28;45362;-81
2022/07/04 05:26:45;;;;;;;;;2.25;2.25;;;;;17.50;56.97;101602.59;5058320;28;45971;-82
2022/07/04 05:29:11;;;;;;;;;1.25;1.25;;;;;17.61;56.76;101599.25;5062936;28;45594;-81
2022/07/04 05:31:36;;;;;;;;;2.50;1.50;;;;;17.64;57.68;101608.19;5059999;28;45411;-81
2022/07/04 05:34:02;;;;;;;;;3.00;3.00;;;;;17.68;57.14;101611.78;5045494;28;45547;-81
2022/07/04 05:36:27;;;;;;;;;3.00;2.50;;;;;17.60;57.37;101592.13;5061587;28;45500;-82
2022/07/04 05:38:53;;;;;;;;;2.25;2.25;;;;;17.82;57.18;101614.72;5037140;28;45478;-82
2022/07/04 05:41:18;;;;;;;;;2.75;2.75;;;;;17.80;57.27;101606.75;5058619;28;44966;-82
2022/07/04 05:43:43;;;;;;;;;4.00;3.00;;;;;17.99;57.24;101629.25;5062130;28;45349;-81
2022/07/04 05:46:09;;;;;;;;;2.50;2.25;;;;;18.08;56.86;101639.13;5065128;28;46365;-82
2022/07/04 05:48:35;;;;;;;;;3.25;3.00;;;;;18.07;56.92;101624.06;5041795;28;45773;-82
2022/07/04 05:51:01;;;;;;;;;3.00;2.00;;;;;18.13;56.47;101629.47;5046837;28;45537;-81
2022/07/04 05:53:27;;;;;;;;;2.00;2.00;;;;;18.06;56.66;101609.84;5056915;28;45454;-81
2022/07/04 05:55:52;;;;;;;;;4.00;3.50;;;;;18.19;56.00;101619.88;5071032;28;45687;-82
2022/07/04 05:58:18;;;;;;;;;2.50;2.50;;;;;18.20;56.58;101612.78;5071603;28;45226;-82
2022/07/04 06:00:43;;;;;;;;;3.25;2.50;;;;;18.38;56.52;101638.81;5065618;28;45148;-81
2022/07/04 06:03:09;;;;;;;;;2.00;2.00;;;;;18.22;56.35;101600.38;5039508;28;45573;-81
2022/07/04 06:05:34;;;;;;;;;2.75;2.75;;;;;18.53;55.88;101655.94;5055704;28;45988;-81
2022/07/04 06:08:01;;;;;;;;;2.75;2.50;;;;;18.37;55.98;101615.69;5052164;28;45543;-81
2022/07/04 06:10:27;;;;;;;;;4.75;3.25;;;;;18.63;56.02;101662.31;5053425;28;45382;-81
2022/07/04 06:12:52;;;;;;;;;2.00;2.00;;;;;18.53;56.11;101642.63;5053410;28;45472;-81
2022/07/04 06:15:18;;;;;;;;;2.75;2.75;;;;;18.56;55.57;101631.09;5055921;28;46109;-81
2022/07/04 06:17:43;;;;;;;;;4.50;3.75;;;;;18.54;55.31;101616.88;5056310;28;45366;-80
2022/07/04 06:20:09;;;;;;;;;2.75;2.75;;;;;18.82;55.44;101652.88;5041523;28;45505;-81
2022/07/04 06:22:42;;;;;;;;;3.50;3.50;;;;;18.86;56.03;101649.38;5053093;28;45226;-81
2022/07/04 06:25:16;;;;;;;;;2.75;2.50;;;;;18.86;56.09;101645.81;5038159;28;45601;-81
2022/07/04 06:27:43;;;;;;;;;0.75;0.75;;;;;18.71;54.76;101611.84;5033349;28;45416;-80
2022/07/04 06:30:09;;;;;;;;;3.25;1.75;;;;;18.76;54.76;101615.47;5043758;28;45031;-81
2022/07/04 06:33:00;;;;;;;;;2.25;2.25;;;;;18.99;55.24;101653.13;5034580;28;45435;-81
2022/07/04 06:38:15;;;;;;;;;2.75;2.25;;;;;19.01;54.40;101648.69;5040047;28;45467;-81
2022/07/04 06:40:41;;;;;;;;;2.25;2.25;;;;;18.90;54.64;101621.00;5040979;28;45435;-81
2022/07/04 06:43:06;;;;;;;;;3.50;3.00;;;;;18.86;55.04;101606.75;5052355;28;45437;-81
2022/07/04 06:45:33;;;;;;;;;3.00;3.00;;;;;19.01;54.97;101624.72;5054049;28;45390;-82
2022/07/04 06:47:59;;;;;;;;;3.00;3.00;;;;;19.13;54.71;101637.34;5044598;28;45843;-81
2022/07/04 06:50:25;;;;;;;;;3.00;2.00;;;;;18.98;55.13;101614.03;5054969;28;45702;-81
2022/07/04 06:52:51;;;;;;;;;3.00;2.00;;;;;19.04;54.46;101624.78;5052090;28;45416;-82
2022/07/04 06:55:34;;;;;;;;;3.00;3.00;;;;;19.06;54.67;101621.28;5042095;28;47992;-82
2022/07/04 06:58:00;;;;;;;;;3.50;2.50;;;;;19.34;54.53;101667.81;5036321;28;45980;-81
2022/07/04 07:00:25;;;;;;;;;2.50;2.00;;;;;19.16;54.81;101635.63;5060729;28;45181;-82
2022/07/04 07:02:51;;;;;;;;;2.00;2.00;;;;;19.29;54.55;101653.53;5051235;28;45699;-81
2022/07/04 07:05:17;;;;;;;;;2.00;2.00;;;;;19.13;54.58;101622.25;5052673;28;46969;-82
2022/07/04 07:07:42;;;;;;;;;2.00;0.75;;;;;19.22;54.29;101630.34;5051290;28;45263;-81
2022/07/04 07:10:08;;;;;;;;;2.25;2.00;;;;;19.50;53.79;101671.56;5052854;28;45364;-82
2022/07/04 07:12:34;;;;;;;;;2.00;2.00;;;;;19.37;54.57;101647.44;5030929;28;45416;-81
2022/07/04 07:15:00;;;;;;;;;1.75;1.50;;;;;19.46;53.84;101653.78;5034495;28;47509;-81
2022/07/04 07:17:26;;;;;;;;;1.25;1.00;;;;;19.32;53.24;101629.59;5050288;28;46238;-81
2022/07/04 07:19:52;;;;;;;;;2.75;2.75;;;;;19.18;52.00;101600.97;5056993;28;45696;-81
2022/07/04 07:22:18;;;;;;;;;2.25;2.00;;;;;19.13;52.52;101592.03;5051903;28;45566;-82
2022/07/04 07:24:43;;;;;;;;;2.50;2.00;;;;;19.28;52.69;101627.75;5039003;28;47248;-82
2022/07/04 07:27:09;;;;;;;;;2.00;2.00;;;;;19.23;52.47;101607.25;5034100;28;45589;-83
2022/07/04 07:29:36;;;;;;;;;2.00;2.00;;;;;19.55;52.24;101660.97;5052699;28;45397;-82
2022/07/04 07:32:01;;;;;;;;;2.50;2.50;;;;;19.14;51.92;101588.47;5052166;28;45572;-82
2022/07/04 07:34:27;;;;;;;;;2.00;2.00;;;;;19.53;51.83;101644.06;5058191;28;46387;-82
2022/07/04 07:36:52;;;;;;;;;2.00;1.25;;;;;19.53;51.94;101639.63;5061734;28;46053;-82
2022/07/04 07:39:17;;;;;;;;;2.00;2.00;;;;;19.52;51.34;101627.19;5058370;28;45352;-82
2022/07/04 07:41:43;;;;;;;;;1.00;1.00;;;;;19.46;51.80;101611.13;5033685;28;45612;-82
2022/07/04 07:44:08;;;;;;;;;2.50;1.25;;;;;19.47;51.63;101617.34;5052188;28;45478;-82
2022/07/04 07:46:34;;;;;;;;;2.50;1.75;;;;;19.75;51.94;101655.91;5065320;28;45315;-82
2022/07/04 07:48:59;;;;;;;;;1.75;1.50;;;;;19.83;52.20;101656.91;5053277;28;45535;-82
2022/07/04 07:51:25;;;;;;;;;2.00;2.00;;;;;19.86;51.98;101650.72;5031739;28;45601;-82
2022/07/04 07:53:50;;;;;;;;;2.25;2.25;;;;;19.87;51.76;101642.72;5014693;28;47669;-82
2022/07/04 07:56:16;;;;;;;;;2.25;2.00;;;;;19.78;51.51;101623.94;5032140;28;45383;-82
2022/07/04 07:58:41;;;;;;;;;1.25;1.25;;;;;19.92;51.38;101650.78;5032453;28;45734;-82
2022/07/04 08:01:06;;;;;;;;;2.00;2.00;;;;;19.68;52.24;101601.63;5033086;28;45420;-82
2022/07/04 08:06:16;;;;;;;;;1.00;1.00;;;;;19.99;50.79;101647.28;5036525;28;45331;-82
2022/07/04 08:08:42;;;;;;;;;1.75;1.50;;;;;20.03;51.01;101655.34;5033507;28;45341;-82
2022/07/04 08:11:09;;;;;;;;;1.50;1.25;;;;;20.01;50.72;101646.44;5048171;28;45022;-81
2022/07/04 08:13:34;;;;;;;;;2.25;1.50;;;;;19.81;50.70;101599.97;5049830;28;45430;-83
2022/07/04 08:15:59;;;;;;;;;1.25;1.00;;;;;19.84;51.62;101598.22;5024143;28;45509;-82
2022/07/04 08:18:25;;;;;;;;;2.00;2.00;;;;;20.09;50.70;101634.03;5014905;28;45733;-82
2022/07/04 08:20:50;;;;;;;;;1.25;1.00;;;;;19.98;50.44;101608.16;5027130;28;45985;-83
2022/07/04 08:23:16;;;;;;;;;2.00;2.00;;;;;20.03;50.89;101617.97;5052087;28;45595;-82
2022/07/04 08:25:42;;;;;;;;;1.00;1.00;;;;;19.99;50.33;101596.59;5038223;28;45535;-83
2022/07/04 08:28:09;;;;;;;;;1.50;1.50;;;;;20.08;50.20;101602.91;5042566;28;45515;-82
2022/07/04 08:30:34;;;;;;;;;1.50;1.50;;;;;19.75;50.11;101541.22;5030180;28;45700;-82
2022/07/04 08:32:59;;;;;;;;;2.00;1.25;;;;;19.97;49.89;101566.34;5046657;28;45456;-83
2022/07/04 08:35:25;;;;;;;;;2.00;2.00;;;;;19.90;49.46;101548.47;5052723;28;45575;-83
2022/07/04 08:37:53;;;;;;;;;3.75;2.00;;;;;19.93;49.57;101537.81;5031810;28;45554;-82
2022/07/04 08:40:23;;;;;;;;;1.00;1.00;;;;;19.82;49.26;101516.41;5054037;28;45379;-82
2022/07/04 08:42:49;;;;;;;;;2.00;2.00;;;;;19.95;49.16;101538.72;5051869;28;45676;-83
2022/07/04 08:45:16;;;;;;;;;2.00;1.25;;;;;20.04;48.94;101553.03;5046963;28;45343;-82
2022/07/04 08:47:43;;;;;;;;;2.75;1.75;;;;;20.36;48.66;101596.03;5059836;28;45124;-81
2022/07/04 08:50:16;;;;;;;;;1.00;1.00;;;;;20.50;48.89;101608.66;5053983;28;45257;-81
2022/07/04 08:52:47;;;;;;;;;1.75;1.25;;;;;20.54;48.78;101607.75;5060544;28;45791;-82
2022/07/04 09:00:42;;;;;;;;;2.25;2.25;;;;;20.51;48.81;101595.28;5055010;28;45462;-82
2022/07/04 09:03:08;;;;;;;;;1.00;1.00;;;;;20.60;48.50;101602.50;5055294;28;46534;-82
2022/07/04 09:05:34;;;;;;;;;1.25;1.25;;;;;20.43;49.09;101556.91;5056409;28;45368;-82
2022/07/04 09:08:01;;;;;;;;;1.00;1.00;;;;;20.76;49.25;101608.81;5062593;28;44990;-82
2022/07/04 09:10:27;;;;;;;;;2.00;2.00;;;;;20.78;48.32;101605.25;5063459;28;45471;-83
2022/07/04 09:12:52;;;;;;;;;1.50;1.50;;;;;20.70;48.17;101579.41;5068770;28;46609;-83
2022/07/04 09:15:18;;;;;;;;;1.00;1.00;;;;;20.68;47.51;101573.13;5069881;28;45187;-82
2022/07/04 09:17:44;;;;;;;;;2.25;2.00;;;;;20.80;47.81;101578.56;5073537;28;45185;-82
2022/07/04 09:20:18;;;;;;;;;1.50;1.00;;;;;20.85;47.77;101579.50;5073538;28;45132;-82
2022/07/04 09:22:44;;;;;;;;;2.00;2.00;;;;;20.99;46.98;101591.16;5072471;28;46234;-83
2022/07/04 09:25:14;;;;;;;;;2.75;2.75;;;;;20.95;47.52;101578.66;5069124;28;45351;-84
2022/07/04 09:27:44;;;;;;;;;2.75;2.00;;;;;20.87;47.95;101561.69;5062624;28;45418;-83
2022/07/04 09:30:11;;;;;;;;;2.00;2.00;;;;;21.13;47.32;101594.78;5061682;28;45415;-83
2022/07/04 09:32:46;;;;;;;;;1.25;1.25;;;;;21.05;47.74;101566.22;5038746;28;47197;-83
2022/07/04 09:35:16;;;;;;;;;3.00;1.75;;;;;21.24;47.12;101593.94;5063743;28;45280;-84
2022/07/04 09:37:46;;;;;;;;;2.00;1.75;;;;;21.27;47.20;101599.28;5053115;28;45498;-83
2022/07/04 09:40:33;;;;;;;;;1.00;1.00;;;;;21.09;47.09;101557.34;5055292;28;45280;-84
2022/07/04 09:43:10;;;;;;;;;1.75;1.75;;;;;21.33;46.84;101588.69;5036540;28;46312;-83
2022/07/04 09:45:52;;;;;;;;;2.00;2.00;;;;;21.40;46.98;101586.91;5053906;28;46031;-83
2022/07/04 09:48:17;;;;;;;;;1.00;1.00;;;;;21.38;46.43;101568.19;5036689;28;45480;-83
2022/07/04 09:50:43;;;;;;;;;2.00;1.50;;;;;21.34;46.93;101555.69;5036956;28;45475;-83
2022/07/04 09:53:08;;;;;;;;;3.00;2.00;;;;;21.43;46.70;101561.06;5035861;28;47274;-83
2022/07/04 09:55:37;;;;;;;;;2.00;2.00;;;;;21.64;46.30;101578.97;5054452;28;45433;-84
2022/07/04 09:58:11;;;;;;;;;1.00;1.00;;;;;21.66;46.15;101579.84;5043591;28;45287;-83
2022/07/04 10:00:37;;;;;;;;;2.25;2.00;;;;;21.76;45.61;101587.00;5053791;28;45441;-84
2022/07/04 10:03:20;;;;;;;;;1.00;1.00;;;;;21.81;45.88;101587.00;5070625;28;45391;-83
2022/07/04 10:05:48;;;;;;;;;2.25;2.25;;;;;21.74;45.75;101572.72;5071050;28;45312;-83
2022/07/04 10:08:13;;;;;;;;;1.75;1.25;;;;;21.73;46.18;101545.97;5053399;28;45214;-83
2022/07/04 10:10:39;;;;;;;;;1.50;1.50;;;;;21.96;45.05;101584.34;5065600;28;45030;-82
2022/07/04 10:13:08;;;;;;;;;1.25;1.25;;;;;22.03;44.85;101586.16;5058952;28;45499;-82
2022/07/04 10:15:39;;;;;;;;;1.75;1.00;;;;;21.92;44.48;101566.53;5058381;28;45815;-82
2022/07/04 10:18:07;;;;;;;;;2.00;1.75;;;;;21.88;44.38;101546.88;5036554;28;45397;-83
2022/07/04 10:20:33;;;;;;;;;1.50;1.25;;;;;22.15;44.21;101580.81;5057848;28;45652;-82
2022/07/04 10:22:58;;;;;;;;;1.00;1.00;;;;;22.03;43.96;101554.03;5045907;28;47689;-83
2022/07/04 10:25:25;;;;;;;;;1.50;1.50;;;;;22.23;44.20;101572.81;5036430;28;45487;-83
2022/07/04 10:27:51;;;;;;;;;1.75;1.75;;;;;22.02;44.16;101530.84;5054302;28;45448;-83
2022/07/04 10:30:24;;;;;;;;;1.00;1.00;;;;;22.30;44.54;101571.00;5036439;28;45712;-83
2022/07/04 10:32:51;;;;;;;;;0.50;0.25;;;;;22.44;44.17;101593.31;5054274;28;45515;-83
2022/07/04 10:35:16;;;;;;;;;1.00;1.00;;;;;22.34;43.48;101562.09;5054554;28;46000;-83
2022/07/04 10:38:04;;;;;;;;;1.00;1.00;;;;;22.55;44.14;101580.81;5053573;28;45391;-85
2022/07/04 10:40:43;;;;;;;;;1.00;1.00;;;;;22.61;43.94;101585.25;5056977;28;45490;-83
2022/07/04 10:43:37;;;;;;;;;2.00;2.00;;;;;22.71;44.40;101583.44;5046637;28;46346;-84
2022/07/04 10:46:02;;;;;;;;;1.00;1.00;;;;;22.80;43.58;101572.72;5054127;28;45625;-82
2022/07/04 10:48:29;;;;;;;;;1.75;1.00;;;;;22.83;43.47;101578.09;5054123;28;45436;-83
2022/07/04 10:51:01;;;;;;;;;1.50;1.50;;;;;22.58;43.10;101524.53;5036205;28;45682;-83
2022/07/04 10:53:27;;;;;;;;;2.00;2.00;;;;;22.86;42.98;101565.56;5034993;28;47050;-83
2022/07/04 10:55:52;;;;;;;;;1.00;1.00;;;;;22.71;42.80;101544.19;5054140;28;45332;-83
2022/07/04 10:58:40;;;;;;;;;2.00;2.00;;;;;22.96;43.12;101579.00;5054693;28;45487;-84
2022/07/04 11:01:11;;;;;;;;;1.75;1.25;;;;;23.00;43.01;101578.06;5035976;28;45424;-85
2022/07/04 11:03:50;;;;;;;;;2.00;2.00;;;;;22.99;42.53;101558.41;5063337;28;46175;-82
2022/07/04 11:06:48;;;;;;;;;1.00;1.00;;;;;23.16;42.14;101563.72;5053728;28;45941;-84
2022/07/04 11:09:18;;;;;;;;;2.00;2.00;;;;;23.18;42.41;101554.75;5008760;28;45421;-83
2022/07/04 11:11:58;;;;;;;;;2.25;2.25;;;;;23.25;41.96;101560.06;5053533;28;45324;-83
2022/07/04 11:14:46;;;;;;;;;2.00;1.75;;;;;23.30;41.64;101558.25;5035601;28;48348;-84
2022/07/04 11:17:36;;;;;;;;;1.00;1.00;;;;;23.34;41.81;101565.41;5035317;28;45477;-84
2022/07/04 11:20:04;;;;;;;;;2.00;2.00;;;;;23.33;41.87;101548.41;5053551;28;45339;-83
2022/07/04 11:22:29;;;;;;;;;2.00;2.00;;;;;23.40;41.77;101546.63;5053076;28;45490;-84
2022/07/04 11:24:55;;;;;;;;;1.00;1.00;;;;;23.56;41.71;101561.72;5052906;28;45774;-84
2022/07/04 11:27:22;;;;;;;;;2.00;2.00;;;;;23.37;41.61;101519.78;5053660;28;45615;-84
2022/07/04 11:29:51;;;;;;;;;0.75;0.75;;;;;23.69;41.18;101557.19;5035519;28;45534;-84
2022/07/04 11:32:17;;;;;;;;;2.25;2.00;;;;;23.56;41.12;101534.88;5053314;28;45513;-84
2022/07/04 11:34:43;;;;;;;;;3.00;3.00;;;;;23.70;40.45;101556.31;5053256;28;45386;-83
2022/07/04 11:37:08;;;;;;;;;2.00;1.75;;;;;23.84;41.02;101554.41;5052886;28;45967;-84
2022/07/04 11:39:34;;;;;;;;;2.00;2.00;;;;;23.77;41.19;101532.97;5053054;28;45353;-83
2022/07/04 11:47:42;;;;;;;;;1.50;1.50;;;;;23.96;40.67;101540.00;5053165;28;45914;-84